Time;durP1;ratioP1;P1;durP2;ratioP2;P2;SDS_P1;SDS_P2;PMS_P1;PMS_P2;Temp;Humidity;BMP_temperature;BMP_pressure;BME280_temperature;BME280_humidity;BME280_pressure;Samples;Min_cycle;Max_cycle;Signal;HPM_P1;HPM_P2
2022/09/07 00:01:25;;;;;;;2.42;1.70;;;22.90;52.20;;;;;;6137036;28;80344;-60
2022/09/07 00:04:26;;;;;;;2.72;1.60;;;22.90;52.20;;;;;;6147730;28;82948;-60
2022/09/07 00:07:26;;;;;;;9.30;1.88;;;22.80;52.20;;;;;;6145999;28;84745;-60
2022/09/07 00:10:27;;;;;;;2.45;1.60;;;22.80;52.30;;;;;;6139730;28;82913;-60
2022/09/07 00:13:28;;;;;;;3.20;2.03;;;22.80;52.20;;;;;;6143867;28;80370;-60
2022/09/07 00:16:29;;;;;;;2.67;1.45;;;22.80;52.30;;;;;;6121610;28;80544;-60
2022/09/07 00:19:29;;;;;;;4.65;2.05;;;22.80;52.30;;;;;;6106042;28;80178;-79
2022/09/07 00:22:30;;;;;;;3.17;1.92;;;22.80;52.30;;;;;;6119431;28;80929;-78
2022/09/07 00:25:30;;;;;;;1.95;1.52;;;22.80;52.30;;;;;;6119200;28;83426;-79
2022/09/07 00:28:31;;;;;;;4.38;2.08;;;22.80;52.30;;;;;;6111933;28;83437;-80
2022/09/07 00:31:31;;;;;;;2.42;1.73;;;22.80;52.60;;;;;;6114698;28;80552;-78
2022/09/07 00:34:32;;;;;;;4.93;1.73;;;22.80;52.90;;;;;;6125539;28;84983;-76
2022/09/07 00:37:32;;;;;;;3.55;1.75;;;22.90;53.40;;;;;;6127461;28;81138;-59
2022/09/07 00:40:33;;;;;;;2.28;1.65;;;22.90;59.40;;;;;;6122190;28;83899;-60
2022/09/07 00:43:34;;;;;;;1.83;1.27;;;22.90;61.40;;;;;;6105412;28;83646;-61
2022/09/07 00:46:35;;;;;;;2.20;1.50;;;22.90;60.80;;;;;;6133521;28;81683;-59
2022/09/07 00:49:36;;;;;;;2.20;1.45;;;22.80;60.10;;;;;;6133034;28;80378;-60
2022/09/07 00:52:36;;;;;;;3.30;2.30;;;22.80;60.90;;;;;;6127837;28;81456;-61
2022/09/07 00:55:37;;;;;;;2.63;1.92;;;22.80;61.20;;;;;;6129007;28;81707;-61
2022/09/07 00:58:37;;;;;;;2.38;1.55;;;22.90;61.80;;;;;;6130030;28;80849;-61
2022/09/07 01:01:38;;;;;;;1.92;1.55;;;22.80;61.80;;;;;;6128066;28;81315;-60
2022/09/07 01:04:39;;;;;;;2.97;1.50;;;22.80;62.20;;;;;;6145367;28;81448;-61
2022/09/07 01:07:40;;;;;;;3.10;1.77;;;22.80;62.20;;;;;;6133734;28;80028;-61
2022/09/07 01:10:40;;;;;;;3.80;1.85;;;22.90;62.10;;;;;;6124556;28;80488;-58
2022/09/07 01:13:41;;;;;;;7.43;1.70;;;22.90;61.80;;;;;;6130354;28;80010;-60
2022/09/07 01:16:41;;;;;;;2.58;1.75;;;22.90;62.00;;;;;;6137887;28;80408;-61
2022/09/07 01:19:42;;;;;;;2.78;1.75;;;22.90;61.20;;;;;;6141648;28;80674;-61
2022/09/07 01:22:43;;;;;;;3.00;1.83;;;22.80;60.80;;;;;;6142188;28;83621;-60
2022/09/07 01:25:43;;;;;;;3.42;1.77;;;22.80;60.80;;;;;;6145408;28;81131;-60
2022/09/07 01:28:46;;;;;;;3.70;2.00;;;22.80;61.00;;;;;;6133330;28;82662;-61
2022/09/07 01:31:46;;;;;;;7.25;1.80;;;22.80;61.70;;;;;;6139058;28;80764;-61
2022/09/07 01:34:47;;;;;;;2.25;1.70;;;22.80;61.60;;;;;;6151757;28;87791;-61
2022/09/07 01:37:48;;;;;;;2.03;1.70;;;22.80;61.30;;;;;;6141212;28;80089;-61
2022/09/07 01:40:48;;;;;;;2.72;1.75;;;22.80;61.30;;;;;;6141395;28;81897;-60
2022/09/07 01:43:49;;;;;;;3.03;1.40;;;22.80;62.10;;;;;;6140495;28;80381;-59
2022/09/07 01:46:49;;;;;;;2.10;1.40;;;22.80;63.30;;;;;;6144065;28;80287;-59
2022/09/07 01:49:50;;;;;;;2.53;1.90;;;22.80;62.10;;;;;;6142176;28;80291;-60
2022/09/07 01:52:50;;;;;;;3.50;1.73;;;22.80;62.40;;;;;;6131267;28;80650;-61
2022/09/07 01:55:51;;;;;;;2.47;1.70;;;22.80;64.00;;;;;;6133834;28;81263;-61
2022/09/07 01:58:52;;;;;;;1.85;1.40;;;22.80;63.50;;;;;;6130755;28;86833;-63
2022/09/07 02:01:52;;;;;;;2.65;1.70;;;22.80;62.80;;;;;;6136277;28;80245;-61
2022/09/07 02:04:53;;;;;;;2.33;1.85;;;22.80;62.40;;;;;;6143708;28;82570;-60
2022/09/07 02:07:53;;;;;;;3.42;1.70;;;22.80;62.80;;;;;;6140825;28;81146;-59
2022/09/07 02:10:54;;;;;;;3.35;1.85;;;22.80;63.50;;;;;;6119811;28;80552;-60
2022/09/07 02:13:55;;;;;;;2.47;1.45;;;22.80;63.30;;;;;;6131075;28;80811;-60
2022/09/07 02:16:55;;;;;;;1.95;1.60;;;22.80;62.80;;;;;;6123284;28;80287;-60
2022/09/07 02:19:58;;;;;;;2.67;1.80;;;22.80;62.80;;;;;;6154197;28;81420;-60
2022/09/07 02:22:59;;;;;;;11.75;2.40;;;22.70;62.80;;;;;;6136456;28;80999;-59
2022/09/07 02:25:59;;;;;;;3.58;2.10;;;22.70;62.60;;;;;;6132593;28;83435;-61
2022/09/07 02:29:00;;;;;;;2.90;1.55;;;22.70;62.90;;;;;;6110158;28;81369;-61
2022/09/07 02:32:00;;;;;;;2.08;1.52;;;22.80;63.00;;;;;;6113827;28;80046;-61
2022/09/07 02:35:01;;;;;;;2.85;1.80;;;22.70;63.40;;;;;;6135813;28;80575;-62
2022/09/07 02:38:02;;;;;;;2.90;1.85;;;22.70;63.10;;;;;;6142818;28;80394;-62
2022/09/07 02:41:02;;;;;;;3.03;2.05;;;22.80;63.90;;;;;;6139807;28;81629;-61
2022/09/07 02:44:03;;;;;;;2.60;1.40;;;22.70;63.00;;;;;;6149551;28;84667;-62
2022/09/07 02:47:03;;;;;;;1.98;1.33;;;22.70;63.40;;;;;;6134855;28;81251;-62
2022/09/07 02:50:04;;;;;;;2.95;1.77;;;22.70;63.30;;;;;;6128938;28;80405;-63
2022/09/07 02:53:04;;;;;;;1.42;1.33;;;22.70;63.20;;;;;;6128485;28;80283;-63
2022/09/07 02:56:05;;;;;;;3.67;1.90;;;22.70;63.10;;;;;;6146154;28;81046;-61
2022/09/07 02:59:05;;;;;;;4.15;2.40;;;22.70;63.10;;;;;;6152641;28;83624;-61
2022/09/07 03:02:06;;;;;;;3.55;1.85;;;22.70;63.00;;;;;;6149554;28;80498;-61
2022/09/07 03:05:06;;;;;;;1.92;1.55;;;22.70;63.40;;;;;;6151845;28;80225;-61
2022/09/07 03:08:07;;;;;;;2.70;1.83;;;22.70;63.10;;;;;;6138927;28;80358;-62
2022/09/07 03:11:07;;;;;;;2.10;1.55;;;22.70;63.50;;;;;;6145423;28;87555;-61
2022/09/07 03:14:08;;;;;;;2.30;1.70;;;22.60;63.90;;;;;;6136033;28;80437;-61
2022/09/07 03:17:08;;;;;;;3.53;1.92;;;22.70;64.00;;;;;;6126010;28;85353;-61
2022/09/07 03:20:09;;;;;;;2.47;1.80;;;22.70;63.70;;;;;;6105260;28;80451;-62
2022/09/07 03:23:09;;;;;;;2.95;1.75;;;22.70;64.10;;;;;;6103946;28;85647;-58
2022/09/07 03:26:10;;;;;;;1.50;1.40;;;22.70;64.20;;;;;;6113847;28;80905;-60
2022/09/07 03:29:10;;;;;;;3.58;2.08;;;22.70;64.40;;;;;;6103794;28;81038;-59
2022/09/07 03:32:11;;;;;;;2.55;2.15;;;22.70;64.40;;;;;;6115588;28;80812;-59
2022/09/07 03:35:11;;;;;;;5.20;2.60;;;22.70;63.80;;;;;;6115481;28;80461;-61
2022/09/07 03:38:12;;;;;;;4.20;1.67;;;22.70;63.60;;;;;;6101326;28;80966;-59
2022/09/07 03:41:12;;;;;;;2.90;1.50;;;22.70;63.20;;;;;;6118553;28;80490;-61
2022/09/07 03:44:13;;;;;;;2.55;1.60;;;22.60;63.80;;;;;;6103909;28;83591;-62
2022/09/07 03:47:13;;;;;;;2.10;1.73;;;22.70;63.90;;;;;;6111190;28;81570;-62
2022/09/07 03:50:14;;;;;;;3.50;2.13;;;22.70;64.40;;;;;;6114971;28;80918;-63
2022/09/07 03:53:14;;;;;;;2.28;1.73;;;22.60;62.90;;;;;;6107878;28;80922;-62
2022/09/07 03:56:15;;;;;;;2.65;2.13;;;22.70;63.20;;;;;;6120186;28;80688;-63
2022/09/07 03:59:15;;;;;;;2.17;1.60;;;22.60;64.20;;;;;;6111715;28;82014;-62
2022/09/07 04:02:16;;;;;;;5.35;2.33;;;22.60;64.20;;;;;;6113292;28;80552;-62
2022/09/07 04:05:16;;;;;;;2.60;1.92;;;22.60;64.40;;;;;;6097182;28;81079;-62
2022/09/07 04:08:17;;;;;;;3.10;2.22;;;22.70;63.70;;;;;;6094393;28;80751;-62
2022/09/07 04:11:17;;;;;;;4.32;2.38;;;22.70;63.60;;;;;;6098690;28;80439;-61
2022/09/07 04:14:18;;;;;;;3.22;2.15;;;22.70;63.90;;;;;;6113337;28;80654;-62
2022/09/07 04:17:18;;;;;;;3.85;2.00;;;22.70;63.80;;;;;;6113336;28;81200;-71
2022/09/07 04:20:19;;;;;;;10.85;2.05;;;22.70;64.20;;;;;;6124604;28;84810;-72
2022/09/07 04:23:19;;;;;;;4.68;2.20;;;22.70;64.80;;;;;;6123152;28;80328;-75
2022/09/07 04:26:20;;;;;;;5.28;2.33;;;22.70;64.80;;;;;;6111679;28;81115;-74
2022/09/07 04:29:20;;;;;;;2.92;1.90;;;22.70;65.00;;;;;;6112493;28;83462;-65
2022/09/07 04:32:21;;;;;;;4.63;2.05;;;22.70;64.90;;;;;;6109131;28;81000;-71
2022/09/07 04:35:21;;;;;;;3.83;2.13;;;22.70;64.20;;;;;;6101879;28;83186;-60
2022/09/07 04:38:22;;;;;;;9.32;2.03;;;22.70;64.90;;;;;;6122551;28;80530;-60
2022/09/07 04:41:22;;;;;;;5.55;2.13;;;22.70;63.80;;;;;;6159811;28;80402;-61
2022/09/07 04:44:23;;;;;;;4.00;2.15;;;22.70;63.90;;;;;;6128076;28;82560;-58
2022/09/07 04:47:24;;;;;;;3.15;2.33;;;22.80;64.10;;;;;;6146913;28;81856;-56
2022/09/07 04:50:24;;;;;;;3.85;2.17;;;22.70;64.30;;;;;;6137189;28;80289;-57
2022/09/07 04:53:24;;;;;;;6.15;2.50;;;22.70;64.00;;;;;;6134801;28;83303;-59
2022/09/07 04:56:25;;;;;;;7.10;2.58;;;22.70;64.20;;;;;;6117298;28;81351;-58
2022/09/07 04:59:25;;;;;;;7.15;2.42;;;22.80;63.60;;;;;;6125158;28;80408;-58
2022/09/07 05:02:26;;;;;;;4.90;2.35;;;22.80;64.90;;;;;;6102427;28;83076;-50
2022/09/07 05:05:26;;;;;;;5.75;2.60;;;22.80;64.70;;;;;;6138198;28;81821;-53
2022/09/07 05:08:27;;;;;;;9.75;2.47;;;22.90;63.60;;;;;;6129206;28;80461;-60
2022/09/07 05:11:27;;;;;;;6.80;2.03;;;22.80;64.30;;;;;;6142927;28;81273;-60
2022/09/07 05:14:28;;;;;;;3.53;2.20;;;22.90;64.60;;;;;;6147646;28;80595;-58
2022/09/07 05:17:29;;;;;;;7.05;2.33;;;22.90;64.20;;;;;;6101932;28;82380;-61
2022/09/07 05:20:30;;;;;;;3.50;2.13;;;22.90;63.50;;;;;;6126617;28;82045;-61
2022/09/07 05:23:30;;;;;;;3.70;2.20;;;22.90;62.20;;;;;;6130004;28;81914;-60
2022/09/07 05:26:31;;;;;;;5.22;2.67;;;22.80;62.10;;;;;;6139026;28;80362;-59
2022/09/07 05:29:32;;;;;;;4.78;3.00;;;22.80;62.90;;;;;;6113399;28;80480;-58
2022/09/07 05:32:32;;;;;;;9.50;3.35;;;22.80;61.90;;;;;;6124127;28;82470;-61
2022/09/07 05:35:33;;;;;;;7.78;3.03;;;22.80;62.30;;;;;;6133446;28;84327;-59
2022/09/07 05:38:33;;;;;;;26.23;3.30;;;22.80;60.70;;;;;;6128922;28;83190;-59
2022/09/07 05:41:34;;;;;;;10.88;2.45;;;22.80;60.80;;;;;;6118545;28;80410;-59
2022/09/07 05:44:34;;;;;;;6.95;3.13;;;22.80;60.20;;;;;;6116872;28;83516;-59
2022/09/07 05:47:36;;;;;;;8.82;3.42;;;22.80;60.00;;;;;;6116825;28;80598;-60
2022/09/07 05:50:37;;;;;;;5.07;2.88;;;22.70;57.90;;;;;;6123518;28;81249;-62
2022/09/07 05:53:37;;;;;;;7.93;3.25;;;22.70;58.80;;;;;;6113714;28;80554;-61
2022/09/07 05:56:38;;;;;;;10.82;3.42;;;22.70;58.50;;;;;;6110810;28;82792;-62
2022/09/07 05:59:38;;;;;;;7.10;3.30;;;22.70;57.50;;;;;;6121206;28;82027;-63
2022/09/07 06:02:39;;;;;;;10.57;4.13;;;22.70;60.20;;;;;;6101955;28;81226;-62
2022/09/07 06:05:40;;;;;;;7.15;3.70;;;22.70;59.00;;;;;;6117434;28;80500;-62
2022/09/07 06:08:40;;;;;;;8.73;3.58;;;22.70;60.20;;;;;;6124640;28;85229;-61
2022/09/07 06:11:41;;;;;;;12.73;3.30;;;22.70;58.40;;;;;;6121710;28;80817;-63
2022/09/07 06:14:41;;;;;;;7.60;3.35;;;22.70;57.80;;;;;;6107343;28;83979;-62
2022/09/07 06:17:42;;;;;;;6.03;3.05;;;22.70;57.10;;;;;;6105247;28;80498;-62
2022/09/07 06:20:42;;;;;;;6.22;3.08;;;22.70;56.30;;;;;;6128158;28;80326;-62
2022/09/07 06:23:43;;;;;;;6.25;3.60;;;22.70;56.80;;;;;;6126802;28;83766;-61
2022/09/07 06:26:43;;;;;;;5.15;2.70;;;22.70;58.20;;;;;;6124974;28;80432;-57
2022/09/07 06:29:44;;;;;;;7.50;3.13;;;22.70;56.60;;;;;;6116572;28;80366;-59
2022/09/07 06:32:45;;;;;;;7.03;3.10;;;22.70;56.90;;;;;;6117514;28;80989;-56
2022/09/07 06:35:45;;;;;;;5.88;2.95;;;22.70;59.00;;;;;;6124847;28;82694;-57
2022/09/07 06:38:45;;;;;;;7.43;3.55;;;22.70;57.80;;;;;;6126018;28;80415;-59
2022/09/07 06:41:46;;;;;;;5.13;3.08;;;22.70;56.50;;;;;;6127315;28;81192;-59
2022/09/07 06:44:52;;;;;;;4.78;3.17;;;22.80;57.00;;;;;;6129236;28;87631;-74
2022/09/07 06:47:53;;;;;;;5.15;3.55;;;22.70;56.70;;;;;;6123541;28;80990;-73
2022/09/07 06:50:53;;;;;;;6.68;3.45;;;22.70;57.70;;;;;;6149976;28;80976;-68
2022/09/07 06:53:55;;;;;;;7.78;3.45;;;22.70;58.00;;;;;;6141755;28;80353;-71
2022/09/07 06:56:55;;;;;;;9.50;3.78;;;22.70;55.90;;;;;;6142592;28;80395;-60
2022/09/07 06:59:56;;;;;;;9.95;3.95;;;22.60;54.10;;;;;;6143650;28;80367;-62
2022/09/07 07:02:56;;;;;;;8.63;3.65;;;22.70;57.90;;;;;;6118608;28;82159;-59
2022/09/07 07:05:57;;;;;;;8.05;3.72;;;22.60;54.10;;;;;;6118251;28;80363;-59
2022/09/07 07:08:57;;;;;;;8.70;3.45;;;22.60;57.20;;;;;;6097415;28;87505;-59
2022/09/07 07:11:58;;;;;;;8.70;3.95;;;22.50;56.70;;;;;;6116120;28;82665;-59
2022/09/07 07:14:59;;;;;;;11.02;4.93;;;22.40;56.40;;;;;;6100578;28;81623;-59
2022/09/07 07:17:59;;;;;;;14.55;4.60;;;22.40;56.00;;;;;;6093693;28;84789;-59
2022/09/07 07:21:00;;;;;;;11.85;4.90;;;22.30;54.80;;;;;;6092875;28;80659;-62
2022/09/07 07:24:00;;;;;;;14.70;4.57;;;22.30;52.90;;;;;;6100540;28;83577;-61
2022/09/07 07:27:01;;;;;;;8.30;3.90;;;22.30;56.00;;;;;;6110305;28;83611;-61
2022/09/07 07:30:02;;;;;;;12.10;4.38;;;22.30;54.50;;;;;;6106533;28;80836;-62
2022/09/07 07:33:03;;;;;;;10.65;4.72;;;22.30;55.50;;;;;;6113163;28;81179;-61
2022/09/07 07:36:03;;;;;;;12.13;4.43;;;22.30;53.70;;;;;;6126385;28;83687;-62
2022/09/07 07:39:04;;;;;;;10.52;3.88;;;22.30;54.40;;;;;;6124089;28;80242;-59
2022/09/07 07:42:04;;;;;;;13.75;4.28;;;22.30;57.70;;;;;;6102183;28;82670;-59
2022/09/07 07:45:05;;;;;;;8.10;3.95;;;22.20;57.30;;;;;;6098005;28;82501;-58
2022/09/07 07:48:06;;;;;;;8.60;4.00;;;22.10;55.90;;;;;;6117385;28;83604;-59
2022/09/07 07:51:07;;;;;;;19.75;4.75;;;22.20;56.00;;;;;;6128293;28;81999;-58
2022/09/07 07:54:07;;;;;;;6.55;3.78;;;22.20;57.00;;;;;;6114107;28;83151;-64
2022/09/07 07:57:08;;;;;;;8.73;4.05;;;22.20;56.30;;;;;;6112143;28;80426;-62
2022/09/07 08:00:08;;;;;;;14.50;5.10;;;22.20;56.80;;;;;;6118323;28;86629;-60
2022/09/07 08:03:11;;;;;;;12.75;4.15;;;22.10;57.40;;;;;;6097603;28;80622;-64
2022/09/07 08:06:12;;;;;;;9.32;4.38;;;22.20;57.20;;;;;;6109370;28;80317;-65
2022/09/07 08:09:12;;;;;;;13.48;4.97;;;22.30;56.80;;;;;;6097308;28;80196;-66
2022/09/07 08:12:13;;;;;;;10.23;4.57;;;22.20;57.30;;;;;;6093176;28;80495;-66
2022/09/07 08:15:14;;;;;;;10.50;4.47;;;22.20;57.70;;;;;;6121523;28;86194;-55
2022/09/07 08:18:14;;;;;;;8.55;3.97;;;22.30;58.00;;;;;;6093945;28;80268;-59
2022/09/07 08:21:15;;;;;;;13.63;4.78;;;22.10;58.60;;;;;;6120827;28;80355;-58
2022/09/07 08:24:15;;;;;;;11.73;4.50;;;22.10;59.40;;;;;;6126384;28;84219;-58
2022/09/07 08:27:16;;;;;;;17.13;5.40;;;22.30;57.90;;;;;;6127864;28;80344;-58
2022/09/07 08:30:16;;;;;;;8.48;4.00;;;22.20;58.80;;;;;;6117808;28;85468;-58
2022/09/07 08:33:17;;;;;;;8.05;4.75;;;22.30;58.80;;;;;;6128649;28;80562;-62
2022/09/07 08:36:17;;;;;;;8.40;4.38;;;22.30;59.10;;;;;;6124174;28;80585;-62
2022/09/07 08:39:18;;;;;;;13.80;5.13;;;22.40;58.60;;;;;;6121922;28;80932;-62
2022/09/07 08:42:18;;;;;;;12.35;5.40;;;22.30;59.10;;;;;;6124994;28;81007;-63
2022/09/07 08:45:19;;;;;;;13.10;4.85;;;22.30;59.10;;;;;;6127875;28;84517;-64
2022/09/07 08:48:19;;;;;;;11.23;4.97;;;22.30;59.30;;;;;;6114605;28;80241;-64
2022/09/07 08:51:20;;;;;;;25.33;4.00;;;22.40;59.50;;;;;;6122450;28;81528;-63
2022/09/07 08:54:20;;;;;;;12.63;4.93;;;22.50;58.90;;;;;;6125444;28;80404;-59
2022/09/07 08:57:21;;;;;;;10.60;4.88;;;22.40;58.90;;;;;;6125684;28;82982;-59
2022/09/07 09:00:21;;;;;;;10.60;4.70;;;22.50;58.70;;;;;;6128870;28;80337;-59
2022/09/07 09:03:22;;;;;;;15.45;4.78;;;22.50;58.90;;;;;;6119294;28;80680;-58
2022/09/07 09:06:22;;;;;;;8.18;4.03;;;22.50;58.80;;;;;;6124172;28;80907;-58
2022/09/07 09:09:24;;;;;;;7.60;3.88;;;22.50;59.00;;;;;;6126263;28;81002;-60
2022/09/07 09:12:24;;;;;;;10.60;4.28;;;22.50;59.40;;;;;;6112326;28;84144;-58
2022/09/07 09:15:25;;;;;;;9.60;4.85;;;22.50;59.80;;;;;;6088552;28;80891;-58
2022/09/07 09:18:25;;;;;;;14.07;4.25;;;22.50;59.20;;;;;;6111238;28;80276;-59
2022/09/07 09:21:26;;;;;;;10.27;4.18;;;22.40;59.40;;;;;;6113499;28;80414;-56
2022/09/07 09:24:27;;;;;;;10.32;5.05;;;22.40;59.30;;;;;;6102988;28;80865;-58
2022/09/07 09:27:27;;;;;;;12.70;4.15;;;22.40;59.50;;;;;;6094754;28;83813;-57
2022/09/07 09:30:28;;;;;;;11.02;3.35;;;22.30;59.80;;;;;;6125229;28;80687;-61
2022/09/07 09:33:29;;;;;;;10.60;4.38;;;22.50;60.00;;;;;;6124577;28;81060;-61
2022/09/07 09:36:29;;;;;;;18.75;4.55;;;22.40;60.10;;;;;;6115433;28;83215;-62
2022/09/07 09:39:30;;;;;;;7.60;4.50;;;22.30;60.60;;;;;;6100231;28;82659;-61
2022/09/07 09:42:30;;;;;;;7.43;4.40;;;22.40;60.30;;;;;;6101761;28;82785;-60
2022/09/07 09:45:31;;;;;;;10.70;4.18;;;22.50;60.50;;;;;;6126925;28;80147;-62
2022/09/07 09:48:31;;;;;;;8.90;3.45;;;22.40;60.60;;;;;;6118051;28;80088;-60
2022/09/07 09:51:32;;;;;;;8.98;4.32;;;22.40;60.60;;;;;;6125973;28;80531;-59
2022/09/07 09:54:33;;;;;;;8.90;3.75;;;22.40;60.50;;;;;;6119212;28;80792;-60
2022/09/07 09:57:33;;;;;;;12.02;3.88;;;22.40;60.70;;;;;;6117628;28;81333;-60
2022/09/07 10:00:34;;;;;;;8.27;3.83;;;22.50;60.50;;;;;;6120172;28;80695;-59
2022/09/07 10:03:35;;;;;;;7.15;3.45;;;22.60;60.50;;;;;;6117921;28;81309;-52
2022/09/07 10:06:35;;;;;;;7.07;4.20;;;22.60;60.60;;;;;;6123755;28;80985;-58
2022/09/07 10:09:36;;;;;;;10.77;4.13;;;22.70;60.70;;;;;;6096503;28;80643;-59
2022/09/07 10:12:37;;;;;;;15.18;3.90;;;22.80;60.50;;;;;;6107730;28;85749;-60
2022/09/07 10:15:37;;;;;;;8.98;4.20;;;22.80;60.50;;;;;;6123558;28;81252;-60
2022/09/07 10:18:38;;;;;;;7.07;3.70;;;22.80;60.40;;;;;;6109858;28;80578;-59
2022/09/07 10:21:38;;;;;;;7.78;4.10;;;22.80;61.30;;;;;;6110466;28;83207;-60
2022/09/07 10:24:39;;;;;;;5.82;3.47;;;23.00;61.30;;;;;;6071106;28;83623;-56
2022/09/07 10:27:39;;;;;;;9.55;3.90;;;22.90;61.40;;;;;;6101799;28;80621;-56
2022/09/07 10:30:40;;;;;;;7.20;3.60;;;22.90;61.40;;;;;;6116156;28;81317;-59
2022/09/07 10:33:41;;;;;;;9.07;4.18;;;22.90;61.40;;;;;;6097115;28;81423;-59
2022/09/07 10:36:41;;;;;;;11.35;4.60;;;22.90;61.70;;;;;;6112574;28;80369;-59
2022/09/07 10:39:42;;;;;;;9.07;4.57;;;22.90;61.00;;;;;;6101765;28;83596;-57
2022/09/07 10:42:42;;;;;;;10.77;3.80;;;22.80;60.90;;;;;;6115933;28;80478;-64
2022/09/07 10:45:43;;;;;;;9.48;4.65;;;22.90;61.40;;;;;;6148676;28;81665;-66
2022/09/07 10:48:43;;;;;;;9.18;3.90;;;23.10;61.60;;;;;;6144275;28;80871;-64
2022/09/07 10:51:44;;;;;;;10.57;4.32;;;23.20;61.60;;;;;;6145353;28;87064;-64
2022/09/07 10:54:44;;;;;;;6.22;3.38;;;23.10;61.00;;;;;;6144884;28;80851;-64
2022/09/07 10:57:45;;;;;;;6.78;3.67;;;23.20;61.20;;;;;;6143355;28;82841;-62
2022/09/07 11:00:45;;;;;;;7.10;4.03;;;23.20;61.20;;;;;;6125664;28;80353;-65
2022/09/07 11:03:46;;;;;;;6.38;3.13;;;23.20;61.10;;;;;;6123210;28;80747;-66
2022/09/07 11:06:46;;;;;;;7.13;3.78;;;23.10;61.20;;;;;;6102203;28;83369;-67
2022/09/07 11:09:47;;;;;;;11.45;4.50;;;23.00;61.20;;;;;;6104540;28;83197;-67
2022/09/07 11:12:47;;;;;;;9.55;4.50;;;23.10;61.10;;;;;;6118791;28;85981;-61
2022/09/07 11:15:48;;;;;;;8.75;4.47;;;23.10;61.30;;;;;;6104547;28;80567;-65
2022/09/07 11:18:48;;;;;;;11.50;4.43;;;23.20;61.50;;;;;;6110510;28;80633;-59
2022/09/07 11:21:49;;;;;;;8.77;4.65;;;23.20;61.20;;;;;;6111392;28;82263;-55
2022/09/07 11:24:49;;;;;;;7.47;4.45;;;23.10;61.70;;;;;;6110027;28;81895;-55
2022/09/07 11:27:50;;;;;;;7.53;4.05;;;23.10;61.40;;;;;;6104526;28;84776;-58
2022/09/07 11:30:50;;;;;;;8.88;4.20;;;23.10;61.20;;;;;;6125874;28;80995;-56
2022/09/07 11:33:51;;;;;;;5.55;3.90;;;23.30;61.20;;;;;;6122134;28;80886;-55
2022/09/07 11:36:51;;;;;;;9.50;4.28;;;23.20;61.30;;;;;;6122358;28;80715;-55
2022/09/07 11:39:52;;;;;;;8.40;3.55;;;23.10;61.50;;;;;;6123514;28;82419;-58
2022/09/07 11:42:52;;;;;;;6.00;3.47;;;23.20;61.60;;;;;;6125090;28;80466;-58
2022/09/07 11:45:53;;;;;;;7.20;3.88;;;23.20;61.80;;;;;;6124327;28;84483;-58
2022/09/07 11:48:53;;;;;;;6.63;4.05;;;23.20;61.50;;;;;;6123555;28;80916;-55
2022/09/07 11:51:54;;;;;;;7.20;3.65;;;23.30;61.70;;;;;;6121422;28;80793;-55
2022/09/07 11:54:54;;;;;;;7.40;3.42;;;23.30;61.80;;;;;;6121463;28;80243;-56
2022/09/07 11:57:54;;;;;;;11.77;4.85;;;23.30;61.60;;;;;;6128784;28;80576;-65
2022/09/07 12:00:55;;;;;;;7.43;4.07;;;23.20;61.70;;;;;;6107113;28;82434;-66
2022/09/07 12:03:56;;;;;;;6.03;3.55;;;23.30;61.90;;;;;;6107781;28;81418;-65
2022/09/07 12:06:57;;;;;;;6.60;3.58;;;23.40;61.80;;;;;;6127612;28;85126;-67
2022/09/07 12:09:57;;;;;;;9.18;3.95;;;23.40;62.10;;;;;;6127202;28;80103;-65
2022/09/07 12:12:58;;;;;;;7.30;4.05;;;23.40;62.00;;;;;;6130257;28;81405;-66
2022/09/07 12:15:58;;;;;;;7.20;3.05;;;23.50;61.30;;;;;;6102706;28;82371;-57
2022/09/07 12:18:59;;;;;;;10.90;5.15;;;23.40;61.20;;;;;;6114357;28;81394;-58
2022/09/07 12:21:59;;;;;;;9.70;3.83;;;23.40;61.30;;;;;;6128847;28;81987;-59
2022/09/07 12:25:00;;;;;;;9.52;4.00;;;23.40;61.50;;;;;;6107611;28;81870;-57
2022/09/07 12:28:00;;;;;;;6.07;3.70;;;23.40;62.10;;;;;;6102293;28;80249;-56
2022/09/07 12:31:03;;;;;;;7.07;4.30;;;23.50;61.80;;;;;;6101594;28;80436;-55
2022/09/07 12:34:03;;;;;;;10.27;3.97;;;23.50;61.70;;;;;;6107332;28;80493;-62
2022/09/07 12:37:04;;;;;;;6.60;3.38;;;23.40;61.80;;;;;;6097937;28;80229;-62
2022/09/07 12:40:05;;;;;;;10.32;4.15;;;23.40;61.80;;;;;;6100859;28;80345;-61
2022/09/07 12:43:05;;;;;;;11.23;4.05;;;23.40;61.50;;;;;;6111413;28;80391;-61
2022/09/07 12:46:06;;;;;;;6.95;3.60;;;23.40;61.50;;;;;;6102687;28;81074;-61
2022/09/07 12:49:06;;;;;;;7.75;3.75;;;23.40;61.60;;;;;;6115440;28;82703;-61
2022/09/07 12:52:07;;;;;;;9.77;3.70;;;23.40;61.90;;;;;;6121471;28;80694;-62
2022/09/07 12:55:07;;;;;;;6.55;3.70;;;23.40;61.80;;;;;;6121234;28;83048;-62
2022/09/07 12:58:08;;;;;;;6.47;3.55;;;23.40;61.70;;;;;;6125065;28;81432;-62
2022/09/07 13:01:08;;;;;;;6.63;3.55;;;23.40;61.20;;;;;;6119059;28;80314;-62
2022/09/07 13:04:09;;;;;;;7.50;3.80;;;23.50;61.50;;;;;;6128930;28;80769;-62
2022/09/07 13:07:09;;;;;;;7.75;3.90;;;23.50;61.50;;;;;;6122002;28;80173;-61
2022/09/07 13:10:10;;;;;;;8.57;3.85;;;23.30;61.20;;;;;;6122324;28;80588;-61
2022/09/07 13:13:10;;;;;;;5.65;3.25;;;23.50;61.40;;;;;;6129935;28;82994;-62
2022/09/07 13:16:12;;;;;;;8.35;3.78;;;23.40;61.20;;;;;;6122051;28;80243;-63
2022/09/07 13:19:13;;;;;;;13.13;4.07;;;23.50;61.10;;;;;;6108240;28;80165;-62
2022/09/07 13:22:14;;;;;;;8.48;4.22;;;23.50;61.20;;;;;;6120585;28;85490;-62
2022/09/07 13:25:14;;;;;;;6.20;4.30;;;23.50;58.30;;;;;;6106121;28;80701;-62
2022/09/07 13:28:15;;;;;;;7.30;3.33;;;23.50;61.50;;;;;;6108476;28;82032;-59
2022/09/07 13:31:16;;;;;;;8.27;3.63;;;23.60;61.80;;;;;;6124855;28;80592;-58
2022/09/07 13:34:16;;;;;;;8.60;3.47;;;23.60;62.50;;;;;;6107331;28;80038;-59
2022/09/07 13:37:17;;;;;;;6.57;3.40;;;23.60;62.10;;;;;;6114371;28;80255;-58
2022/09/07 13:40:17;;;;;;;9.68;4.38;;;23.60;62.10;;;;;;6109225;28;80355;-58
2022/09/07 13:43:18;;;;;;;7.25;3.95;;;23.60;62.30;;;;;;6112249;28;80682;-58
2022/09/07 13:46:19;;;;;;;7.38;4.20;;;23.60;61.90;;;;;;6133186;28;83825;-61
2022/09/07 13:49:19;;;;;;;7.90;3.67;;;23.50;61.40;;;;;;6126400;28;80409;-61
2022/09/07 13:52:19;;;;;;;8.32;4.00;;;23.50;61.50;;;;;;6127118;28;80386;-62
2022/09/07 13:55:20;;;;;;;9.32;4.22;;;23.50;61.50;;;;;;6127023;28;86690;-61
2022/09/07 13:58:21;;;;;;;7.55;3.53;;;23.50;62.40;;;;;;6129749;28;80758;-61
2022/09/07 14:01:21;;;;;;;7.15;3.83;;;23.50;61.20;;;;;;6103499;28;84434;-63
2022/09/07 14:04:22;;;;;;;6.90;3.92;;;23.50;62.50;;;;;;6122632;28;87513;-65
2022/09/07 14:07:22;;;;;;;11.27;3.72;;;23.50;62.00;;;;;;6149915;28;84796;-65
2022/09/07 14:10:23;;;;;;;9.02;3.92;;;23.40;61.90;;;;;;6138583;28;87279;-63
2022/09/07 14:13:24;;;;;;;12.70;4.53;;;23.50;61.80;;;;;;6143254;28;80836;-60
2022/09/07 14:16:24;;;;;;;8.70;3.78;;;23.50;62.40;;;;;;6131049;28;82132;-67
2022/09/07 14:19:25;;;;;;;7.45;3.95;;;23.60;62.90;;;;;;6139473;28;83060;-69
2022/09/07 14:22:25;;;;;;;8.85;3.47;;;23.60;62.90;;;;;;6131495;28;80514;-66
2022/09/07 14:25:26;;;;;;;5.68;3.13;;;23.60;63.20;;;;;;6146279;28;81338;-67
2022/09/07 14:28:26;;;;;;;7.90;3.63;;;23.60;63.70;;;;;;6148064;28;80524;-67
2022/09/07 14:31:27;;;;;;;6.32;3.28;;;23.60;63.10;;;;;;6147590;28;83247;-68
2022/09/07 14:34:28;;;;;;;6.53;3.75;;;23.60;63.40;;;;;;6124321;28;80311;-68
2022/09/07 14:37:28;;;;;;;15.10;3.60;;;23.70;62.70;;;;;;6122088;28;81133;-68
2022/09/07 14:40:29;;;;;;;4.80;3.15;;;23.70;62.40;;;;;;6118844;28;80753;-66
2022/09/07 14:43:29;;;;;;;6.15;3.50;;;23.70;63.30;;;;;;6128866;28;80367;-68
2022/09/07 14:46:31;;;;;;;6.45;3.63;;;23.70;62.70;;;;;;6116668;28;80933;-66
2022/09/07 14:49:31;;;;;;;14.77;3.88;;;23.70;62.80;;;;;;6126244;28;81414;-68
2022/09/07 14:52:32;;;;;;;16.48;3.75;;;23.70;63.40;;;;;;6127537;28;80141;-69
2022/09/07 14:55:32;;;;;;;10.43;3.70;;;23.70;62.90;;;;;;6118638;28;80750;-71
2022/09/07 14:58:33;;;;;;;7.03;3.88;;;23.70;62.70;;;;;;6109484;28;82041;-76
2022/09/07 15:01:34;;;;;;;10.07;4.10;;;23.70;62.80;;;;;;6118679;28;81119;-57
2022/09/07 15:04:35;;;;;;;12.95;4.68;;;23.70;63.10;;;;;;6117936;28;82650;-60
2022/09/07 15:07:35;;;;;;;4.85;3.10;;;23.70;63.10;;;;;;6117382;28;81188;-60
2022/09/07 15:10:36;;;;;;;17.48;4.43;;;23.70;63.10;;;;;;6118532;28;82794;-59
2022/09/07 15:13:36;;;;;;;6.05;3.63;;;23.70;63.00;;;;;;6117967;28;80407;-59
2022/09/07 15:16:37;;;;;;;6.07;3.50;;;23.80;63.20;;;;;;6118866;28;82653;-61
2022/09/07 15:19:37;;;;;;;4.88;3.42;;;23.70;63.40;;;;;;6127008;28;86719;-60
2022/09/07 15:22:37;;;;;;;8.90;4.03;;;23.70;63.00;;;;;;6111325;28;80653;-59
2022/09/07 15:25:38;;;;;;;6.90;3.80;;;23.80;63.70;;;;;;6116064;28;80622;-57
2022/09/07 15:28:39;;;;;;;8.60;3.60;;;23.70;63.70;;;;;;6124794;28;85566;-59
2022/09/07 15:31:39;;;;;;;7.22;3.83;;;23.80;63.50;;;;;;6114046;28;80606;-58
2022/09/07 15:34:40;;;;;;;6.18;3.53;;;23.80;63.70;;;;;;6119922;28;80217;-59
2022/09/07 15:37:40;;;;;;;8.70;2.80;;;23.80;64.70;;;;;;6120164;28;80053;-58